Time;durP1;ratioP1;P1;durP2;ratioP2;P2;SDS_P1;SDS_P2;PMS_P1;PMS_P2;Temp;Humidity;BMP_temperature;BMP_pressure;BME280_temperature;BME280_humidity;BME280_pressure;Samples;Min_cycle;Max_cycle;Signal;HPM_P1;HPM_P2
2022/09/28 00:02:14;;;;;;;;;;;;;;;13.95;100.00;98221.78;1723600;81;21665;-68
2022/09/28 00:04:41;;;;;;;24.13;19.23;;;;;;;13.94;100.00;98227.02;1733760;81;20434;-69
2022/09/28 00:07:07;;;;;;;22.98;19.60;;;;;;;13.86;100.00;98233.31;1717908;81;21073;-69
2022/09/28 00:09:34;;;;;;;23.50;18.17;;;;;;;13.88;100.00;98229.14;1719215;81;21533;-69
2022/09/28 00:12:00;;;;;;;23.60;18.37;;;;;;;13.94;100.00;98237.39;1719923;81;21584;-69
2022/09/28 00:14:27;;;;;;;25.08;20.00;;;;;;;14.01;100.00;98241.53;1681444;83;21039;-69
2022/09/28 00:16:53;;;;;;;25.25;19.35;;;;;;;14.02;100.00;98241.22;1721188;81;21393;-69
2022/09/28 00:19:20;;;;;;;24.40;18.87;;;;;;;14.01;100.00;98238.80;1734131;81;21082;-69
2022/09/28 00:21:46;;;;;;;23.73;18.52;;;;;;;14.01;100.00;98238.23;1708328;81;21169;-69
2022/09/28 00:24:14;;;;;;;30.30;21.25;;;;;;;14.02;100.00;98235.75;1704999;81;20991;-69
2022/09/28 00:26:54;;;;;;;23.70;19.20;;;;;;;14.06;100.00;98235.33;1710149;81;21136;-69
2022/09/28 00:29:33;;;;;;;28.07;20.62;;;;;;;14.10;100.00;98224.52;1718890;81;21034;-69
2022/09/28 00:32:12;;;;;;;26.60;21.25;;;;;;;14.12;100.00;98218.14;1723326;81;21609;-69
2022/09/28 00:34:44;;;;;;;24.35;19.45;;;;;;;14.08;100.00;98208.98;1677274;83;21686;-68
2022/09/28 00:37:12;;;;;;;27.13;19.48;;;;;;;14.04;100.00;98207.48;1646889;84;21087;-68
2022/09/28 00:39:40;;;;;;;23.40;18.82;;;;;;;13.99;100.00;98217.83;1720098;81;21058;-69
2022/09/28 00:42:16;;;;;;;28.23;19.40;;;;;;;13.91;100.00;98220.27;1711162;81;21190;-69
2022/09/28 00:44:53;;;;;;;34.08;23.62;;;;;;;13.88;100.00;98218.77;1728575;81;21026;-68
2022/09/28 00:47:42;;;;;;;35.63;25.27;;;;;;;13.89;100.00;98214.88;1724346;81;21070;-71
2022/09/28 00:50:32;;;;;;;31.00;23.22;;;;;;;13.92;100.00;98215.61;1712605;81;21747;-70
2022/09/28 00:53:09;;;;;;;34.40;24.32;;;;;;;13.84;100.00;98218.63;1716387;81;21093;-68
2022/09/28 00:55:51;;;;;;;35.28;24.02;;;;;;;13.84;100.00;98222.72;1728993;81;21126;-68
2022/09/28 00:58:29;;;;;;;32.58;22.73;;;;;;;13.89;100.00;98222.52;1719214;81;21572;-69
2022/09/28 01:00:56;;;;;;;33.92;23.15;;;;;;;13.92;100.00;98219.72;1717705;81;21163;-69
2022/09/28 01:03:25;;;;;;;32.58;23.98;;;;;;;13.93;100.00;98210.35;1721465;81;21030;-69
2022/09/28 01:05:52;;;;;;;32.40;25.37;;;;;;;13.88;100.00;98203.16;1715249;82;21577;-69
2022/09/28 01:08:19;;;;;;;34.78;25.20;;;;;;;13.79;100.00;98203.75;1721540;82;21042;-69
2022/09/28 01:10:49;;;;;;;35.00;25.08;;;;;;;13.72;100.00;98208.13;1671384;83;21096;-69
2022/09/28 01:13:17;;;;;;;33.55;25.30;;;;;;;13.71;100.00;98207.91;1719614;82;21070;-69
2022/09/28 01:16:28;;;;;;;33.65;23.80;;;;;;;13.65;100.00;98208.64;1706413;82;21756;-69
2022/09/28 01:19:31;;;;;;;28.45;22.48;;;;;;;13.58;100.00;98203.45;1706902;82;21078;-69
2022/09/28 01:22:24;;;;;;;30.50;23.18;;;;;;;13.51;100.00;98208.62;1681127;83;21079;-67
2022/09/28 01:25:19;;;;;;;33.92;24.27;;;;;;;13.55;100.00;98210.94;1705490;82;21039;-68
2022/09/28 01:28:01;;;;;;;34.18;25.02;;;;;;;13.53;100.00;98207.74;1675977;83;21075;-69
2022/09/28 01:30:28;;;;;;;32.25;23.57;;;;;;;13.49;100.00;98212.26;1671427;83;21127;-69
2022/09/28 01:33:11;;;;;;;34.98;24.82;;;;;;;13.44;100.00;98207.20;1677978;83;21079;-69
2022/09/28 01:36:01;;;;;;;35.30;26.23;;;;;;;13.38;100.00;98205.78;1662961;84;21115;-69
2022/09/28 01:38:34;;;;;;;37.20;26.97;;;;;;;13.42;100.00;98204.01;1665393;84;21154;-69
2022/09/28 01:41:01;;;;;;;38.80;27.30;;;;;;;13.45;100.00;98201.98;1665692;84;21038;-69
2022/09/28 01:43:29;;;;;;;32.25;26.05;;;;;;;13.42;100.00;98191.70;1685120;84;21038;-70
2022/09/28 01:46:12;;;;;;;36.48;24.52;;;;;;;13.45;100.00;98195.15;1701443;82;21082;-69
2022/09/28 01:48:50;;;;;;;34.15;24.25;;;;;;;13.46;100.00;98195.95;1683353;83;21433;-69
2022/09/28 01:51:39;;;;;;;35.73;26.20;;;;;;;13.50;100.00;98200.20;1702648;82;21080;-69
2022/09/28 01:54:13;;;;;;;33.85;25.20;;;;;;;13.51;100.00;98194.95;1712260;82;21126;-69
2022/09/28 01:56:53;;;;;;;37.98;26.80;;;;;;;13.52;100.00;98199.30;1704168;82;21106;-69
2022/09/28 01:59:27;;;;;;;39.13;26.93;;;;;;;13.53;100.00;98203.08;1709186;82;21098;-69
2022/09/28 02:02:06;;;;;;;35.23;26.37;;;;;;;13.50;100.00;98204.30;1717532;82;21074;-69
2022/09/28 02:04:47;;;;;;;39.50;26.10;;;;;;;13.48;100.00;98203.25;1721191;81;21098;-69
2022/09/28 02:07:20;;;;;;;35.08;26.05;;;;;;;13.48;100.00;98201.88;1723369;81;21588;-69
2022/09/28 02:09:55;;;;;;;31.05;23.65;;;;;;;13.45;100.00;98208.81;1713195;81;21018;-69
2022/09/28 02:12:41;;;;;;;32.83;24.63;;;;;;;13.42;100.00;98210.03;1721964;81;21535;-69
2022/09/28 02:15:32;;;;;;;34.20;25.40;;;;;;;13.44;100.00;98210.50;1715704;81;21073;-69
2022/09/28 02:17:59;;;;;;;34.70;25.88;;;;;;;13.44;100.00;98208.57;1686458;81;21077;-69
2022/09/28 02:20:26;;;;;;;35.92;25.20;;;;;;;13.38;100.00;98204.42;1719958;81;21093;-69
2022/09/28 02:22:54;;;;;;;;;;;;;;;13.37;100.00;98206.09;1717521;81;21692;-69
2022/09/28 02:25:34;;;;;;;34.58;24.60;;;;;;;13.41;100.00;98200.22;1706074;81;20166;-69
2022/09/28 02:28:03;;;;;;;34.85;24.02;;;;;;;13.39;100.00;98201.91;1705224;81;21101;-69
2022/09/28 02:30:32;;;;;;;32.58;23.65;;;;;;;13.45;100.00;98204.72;1727862;81;21012;-69
2022/09/28 02:33:04;;;;;;;32.15;25.55;;;;;;;13.51;100.00;98200.42;1705258;83;21030;-69
2022/09/28 02:35:33;;;;;;;34.15;24.82;;;;;;;13.51;100.00;98199.05;1714639;81;21010;-69
2022/09/28 02:37:59;;;;;;;32.88;24.27;;;;;;;13.53;100.00;98205.02;1722746;81;21049;-69
2022/09/28 02:40:30;;;;;;;31.23;23.35;;;;;;;13.56;100.00;98208.45;1720445;81;21037;-69
2022/09/28 02:43:17;;;;;;;30.00;23.07;;;;;;;13.53;100.00;98194.08;1714784;81;21106;-69
2022/09/28 02:45:54;;;;;;;31.67;23.70;;;;;;;13.55;100.00;98203.55;1689104;81;21496;-68
2022/09/28 02:48:57;;;;;;;28.77;22.65;;;;;;;13.56;100.00;98202.98;1696690;83;21571;-67
2022/09/28 02:52:12;;;;;;;29.27;23.57;;;;;;;13.57;100.00;98207.33;1718110;81;21110;-68
2022/09/28 02:55:14;;;;;;;37.17;27.00;;;;;;;13.56;100.00;98218.02;1717727;81;21074;-68
2022/09/28 02:58:06;;;;;;;32.15;24.02;;;;;;;13.52;100.00;98219.80;1723527;81;21038;-68
2022/09/28 03:00:38;;;;;;;29.65;23.02;;;;;;;13.50;100.00;98210.55;1718194;81;21070;-68
2022/09/28 03:03:19;;;;;;;29.77;23.18;;;;;;;13.46;100.00;98212.36;1731444;81;21062;-69
2022/09/28 03:06:01;;;;;;;29.85;22.05;;;;;;;13.38;100.00;98213.18;1714389;82;21752;-68
2022/09/28 03:08:44;;;;;;;33.78;25.88;;;;;;;13.37;100.00;98215.11;1684267;83;21104;-68
2022/09/28 03:11:17;;;;;;;33.83;23.45;;;;;;;13.34;100.00;98211.66;1712223;81;21105;-68
2022/09/28 03:13:46;;;;;;;30.62;23.80;;;;;;;13.27;100.00;98209.19;1706208;82;21076;-67
2022/09/28 03:16:18;;;;;;;28.83;22.45;;;;;;;13.29;100.00;98209.65;1709475;82;21202;-68
2022/09/28 03:18:47;;;;;;;30.72;23.70;;;;;;;13.39;100.00;98209.33;1686518;82;21082;-68
2022/09/28 03:21:14;;;;;;;31.30;21.82;;;;;;;13.48;100.00;98211.45;1706758;82;21119;-67
2022/09/28 03:23:42;;;;;;;27.75;21.87;;;;;;;13.57;100.00;98210.84;1724851;82;21050;-67
2022/09/28 03:26:11;;;;;;;27.75;21.27;;;;;;;13.65;100.00;98211.38;1717658;82;21004;-68
2022/09/28 03:28:38;;;;;;;29.50;22.58;;;;;;;13.68;100.00;98216.19;1722733;82;21032;-67
2022/09/28 03:31:06;;;;;;;30.90;23.15;;;;;;;13.63;100.00;98216.39;1711773;82;21558;-68
2022/09/28 03:33:32;;;;;;;29.18;22.15;;;;;;;13.67;100.00;98215.16;1708884;82;21058;-67
2022/09/28 03:35:59;;;;;;;28.23;22.45;;;;;;;13.69;100.00;98212.33;1705673;82;21066;-67
2022/09/28 03:38:26;;;;;;;27.82;21.90;;;;;;;13.65;100.00;98201.81;1725497;82;21525;-68
2022/09/28 03:40:56;;;;;;;32.33;23.32;;;;;;;13.63;100.00;98208.19;1717984;80;21094;-67
2022/09/28 03:43:23;;;;;;;28.10;22.07;;;;;;;13.64;100.00;98207.03;1728103;82;21081;-67
2022/09/28 03:45:58;;;;;;;29.60;23.25;;;;;;;13.64;100.00;98206.25;1710045;82;21126;-67
2022/09/28 03:48:30;;;;;;;31.25;23.62;;;;;;;13.59;100.00;98203.69;1693658;83;21074;-67
2022/09/28 03:50:59;;;;;;;31.07;24.85;;;;;;;13.59;100.00;98195.48;1713587;82;21094;-67
2022/09/28 03:53:25;;;;;;;31.97;25.37;;;;;;;13.66;100.00;98201.25;1672927;83;21070;-67
2022/09/28 03:55:52;;;;;;;;;;;;;;;13.70;100.00;98209.03;1661324;85;21591;-67
2022/09/28 03:58:20;;;;;;;27.73;22.07;;;;;;;13.73;100.00;98207.00;1645887;85;20167;-68
2022/09/28 04:00:47;;;;;;;27.13;22.15;;;;;;;13.67;100.00;98205.59;1663501;83;21217;-67
2022/09/28 04:03:14;;;;;;;31.48;23.15;;;;;;;13.67;100.00;98202.86;1688767;81;21123;-68
2022/09/28 04:05:51;;;;;;;28.77;22.90;;;;;;;13.62;100.00;98209.30;1651667;85;22359;-67
2022/09/28 04:08:19;;;;;;;29.45;22.98;;;;;;;13.53;100.00;98209.11;1668121;84;21128;-67
2022/09/28 04:10:47;;;;;;;28.00;22.37;;;;;;;13.44;100.00;98216.77;1671959;84;21083;-68
2022/09/28 04:13:13;;;;;;;;;;;;;;;13.43;100.00;98215.16;1675788;84;21425;-67
2022/09/28 04:15:42;;;;;;;29.18;21.70;;;;;;;13.44;100.00;98205.84;1681166;84;20448;-67
2022/09/28 04:18:11;;;;;;;25.60;20.40;;;;;;;13.40;100.00;98214.45;1666132;84;21017;-67
2022/09/28 04:20:46;;;;;;;27.10;21.77;;;;;;;13.47;100.00;98212.57;1621196;83;21051;-67
2022/09/28 04:23:14;;;;;;;29.42;22.85;;;;;;;13.53;100.00;98222.78;1666200;84;20975;-69
2022/09/28 04:25:44;;;;;;;27.50;21.90;;;;;;;13.51;100.00;98216.82;1674295;84;21072;-69
2022/09/28 04:30:54;;;;;;;27.22;20.97;;;;;;;13.56;100.00;98216.09;1665815;84;21161;-68
2022/09/28 04:33:21;;;;;;;30.62;23.07;;;;;;;13.62;100.00;98211.23;1673159;84;22288;-68
2022/09/28 04:35:48;;;;;;;30.25;22.95;;;;;;;13.68;100.00;98209.34;1630713;84;21508;-69
2022/09/28 04:38:14;;;;;;;;;;;;;;;13.75;100.00;98198.70;1683376;84;21044;-69
2022/09/28 04:40:42;;;;;;;30.80;23.02;;;;;;;13.79;100.00;98202.95;1640891;86;20140;-69
2022/09/28 04:43:08;;;;;;;32.55;24.67;;;;;;;13.73;100.00;98200.97;1668276;84;22229;-69
2022/09/28 04:45:36;;;;;;;30.55;23.57;;;;;;;13.79;100.00;98207.85;1677299;84;21111;-69
2022/09/28 04:48:06;;;;;;;30.27;22.05;;;;;;;13.88;100.00;98203.16;1663599;84;21144;-68
2022/09/28 04:50:55;;;;;;;29.07;21.42;;;;;;;13.96;100.00;98203.66;1669837;84;21078;-68
2022/09/28 04:53:22;;;;;;;31.12;23.52;;;;;;;14.03;100.00;98209.19;1674533;84;20995;-69
2022/09/28 04:56:11;;;;;;;32.67;25.55;;;;;;;14.05;100.00;98204.98;1670578;83;21098;-68
2022/09/28 04:58:38;;;;;;;34.38;26.23;;;;;;;14.03;100.00;98200.39;1673095;85;21094;-69
2022/09/28 05:01:14;;;;;;;31.77;25.97;;;;;;;14.02;100.00;98191.16;1679043;84;21109;-69
2022/09/28 05:03:49;;;;;;;31.68;24.98;;;;;;;14.00;100.00;98192.85;1620806;85;21110;-69
2022/09/28 05:06:21;;;;;;;28.45;23.30;;;;;;;13.95;100.00;98188.39;1628858;86;21090;-69
2022/09/28 05:08:52;;;;;;;31.77;24.60;;;;;;;13.96;100.00;98197.38;1684349;83;21094;-69
2022/09/28 05:11:20;;;;;;;31.25;22.77;;;;;;;14.01;100.00;98192.29;1682988;83;21078;-68
2022/09/28 05:13:49;;;;;;;30.50;22.02;;;;;;;14.06;100.00;98192.91;1693477;83;21065;-69
2022/09/28 05:16:17;;;;;;;29.72;23.45;;;;;;;14.11;100.00;98196.81;1680975;83;21747;-70
2022/09/28 05:18:46;;;;;;;30.30;24.20;;;;;;;14.17;100.00;98196.06;1655771;85;21744;-69
2022/09/28 05:21:13;;;;;;;30.12;23.47;;;;;;;14.11;100.00;98204.21;1672762;83;21062;-69
2022/09/28 05:23:45;;;;;;;29.10;22.40;;;;;;;14.07;100.00;98195.06;1675602;83;21050;-69
2022/09/28 05:26:11;;;;;;;25.97;21.02;;;;;;;14.09;100.00;98196.91;1696901;83;21090;-69
2022/09/28 05:28:38;;;;;;;;;;;;;;;14.11;100.00;98199.55;1687824;83;21003;-69
2022/09/28 05:31:22;;;;;;;29.87;22.25;;;;;;;14.13;100.00;98191.83;1685538;83;20140;-69
2022/09/28 05:33:59;;;;;;;28.00;24.10;;;;;;;14.02;100.00;98187.87;1674263;83;21122;-69
2022/09/28 05:36:26;;;;;;;32.38;25.72;;;;;;;13.95;100.00;98186.22;1681177;83;21110;-69
2022/09/28 05:38:53;;;;;;;30.00;24.30;;;;;;;13.93;100.00;98191.20;1678273;83;21101;-69
2022/09/28 05:41:20;;;;;;;32.40;26.25;;;;;;;13.96;100.00;98197.38;1685248;83;21114;-69
2022/09/28 05:43:46;;;;;;;29.02;23.25;;;;;;;14.01;100.00;98197.77;1685202;83;21113;-69
2022/09/28 05:46:13;;;;;;;32.23;24.90;;;;;;;14.06;100.00;98201.69;1676499;83;21540;-69
2022/09/28 05:48:41;;;;;;;27.62;23.32;;;;;;;14.07;100.00;98204.08;1681045;83;21067;-69
2022/09/28 05:51:09;;;;;;;26.35;21.17;;;;;;;14.11;100.00;98207.75;1693204;83;21087;-69
2022/09/28 05:53:35;;;;;;;23.62;19.77;;;;;;;14.14;100.00;98219.97;1629781;86;21097;-67
2022/09/28 05:56:04;;;;;;;24.67;20.60;;;;;;;14.19;100.00;98222.52;1612217;87;22532;-67
2022/09/28 05:58:33;;;;;;;23.22;20.35;;;;;;;14.22;100.00;98220.48;1684481;83;21114;-68
2022/09/28 06:01:00;;;;;;;24.23;21.00;;;;;;;14.26;100.00;98224.97;1682603;83;21162;-67
2022/09/28 06:03:26;;;;;;;27.13;21.77;;;;;;;14.27;100.00;98223.84;1688321;83;21071;-69
2022/09/28 06:05:53;;;;;;;26.73;21.25;;;;;;;14.25;100.00;98221.99;1724229;82;21066;-68
2022/09/28 06:08:21;;;;;;;25.35;20.55;;;;;;;14.28;100.00;98223.25;1698959;83;21389;-68
2022/09/28 06:10:49;;;;;;;26.05;21.77;;;;;;;14.33;100.00;98217.03;1713903;82;21108;-68
2022/09/28 06:13:16;;;;;;;27.95;22.67;;;;;;;14.37;100.00;98214.47;1704170;82;21058;-68
2022/09/28 06:18:45;;;;;;;33.58;24.57;;;;;;;14.38;100.00;98211.97;1814487;78;22944;-67
2022/09/28 06:21:12;;;;;;;;;;;;;;;14.28;100.00;98216.41;1780208;79;22213;-67
2022/09/28 06:23:40;;;;;;;29.75;23.38;;;;;;;14.23;100.00;98211.95;1789332;79;20497;-68
2022/09/28 06:26:06;;;;;;;27.73;21.85;;;;;;;14.16;100.00;98207.58;1773819;79;21067;-68
2022/09/28 06:28:33;;;;;;;26.02;21.45;;;;;;;14.11;100.00;98206.95;1691394;83;21055;-68
2022/09/28 06:30:59;;;;;;;;;;;;;;;14.10;100.00;98199.89;1717885;82;21127;-68
2022/09/28 06:33:26;;;;;;;24.70;20.62;;;;;;;14.12;100.00;98203.09;1756283;81;20126;-68
2022/09/28 06:35:52;;;;;;;26.00;21.62;;;;;;;14.10;100.00;98199.30;1741180;82;21121;-68
2022/09/28 06:38:19;;;;;;;25.68;22.00;;;;;;;14.15;100.00;98197.75;1715337;83;21084;-68
2022/09/28 06:40:47;;;;;;;24.98;20.72;;;;;;;14.19;100.00;98187.75;1719942;81;21098;-68
2022/09/28 06:43:15;;;;;;;29.07;22.37;;;;;;;14.20;100.00;98188.56;1709566;81;21659;-68
2022/09/28 06:46:01;;;;;;;26.45;21.15;;;;;;;14.20;100.00;98189.36;1734026;81;22200;-68
2022/09/28 06:48:47;;;;;;;30.48;21.97;;;;;;;14.28;100.00;98187.67;1740644;82;21780;-69
2022/09/28 06:51:16;;;;;;;25.50;20.82;;;;;;;14.39;100.00;98179.33;1744402;81;21091;-69
2022/09/28 06:53:47;;;;;;;28.12;22.67;;;;;;;14.50;100.00;98181.09;1710385;82;21588;-68
2022/09/28 06:56:19;;;;;;;31.40;27.62;;;;;;;14.63;100.00;98178.67;1715774;82;21106;-68
2022/09/28 06:58:47;;;;;;;24.75;20.77;;;;;;;14.70;100.00;98185.78;1725494;83;21019;-69
2022/09/28 07:01:15;;;;;;;27.75;22.15;;;;;;;14.77;100.00;98180.56;1688206;83;21093;-69
2022/09/28 07:03:43;;;;;;;24.82;19.57;;;;;;;14.87;100.00;98186.42;1743511;81;21078;-69
2022/09/28 07:06:19;;;;;;;20.23;17.60;;;;;;;15.00;100.00;98181.77;1721173;83;21122;-69
2022/09/28 07:09:06;;;;;;;23.42;18.92;;;;;;;15.13;100.00;98185.34;1745752;82;21067;-69
2022/09/28 07:11:40;;;;;;;21.73;18.55;;;;;;;15.19;100.00;98172.47;1725808;82;21708;-69
2022/09/28 07:14:13;;;;;;;23.62;18.75;;;;;;;15.24;100.00;98170.06;1723660;81;21067;-70
2022/09/28 07:16:39;;;;;;;22.82;18.85;;;;;;;15.28;100.00;98169.05;1717194;83;21071;-70
2022/09/28 07:19:06;;;;;;;24.10;19.12;;;;;;;15.27;100.00;98163.33;1685974;82;21084;-70
2022/09/28 07:21:32;;;;;;;23.90;20.32;;;;;;;15.19;100.00;98160.14;1790142;79;21051;-71
2022/09/28 07:24:01;;;;;;;20.43;17.40;;;;;;;15.21;100.00;98155.10;1787832;80;21499;-71
2022/09/28 07:26:37;;;;;;;20.77;17.73;;;;;;;15.29;100.00;98160.26;1788571;79;21147;-71
2022/09/28 07:29:05;;;;;;;18.82;16.70;;;;;;;15.36;100.00;98160.50;1790631;80;21638;-71
2022/09/28 07:31:40;;;;;;;20.40;17.25;;;;;;;15.37;100.00;98154.66;1786744;80;21608;-71
2022/09/28 07:34:17;;;;;;;20.05;17.70;;;;;;;15.33;100.00;98155.70;1748908;80;21035;-69
2022/09/28 07:36:50;;;;;;;19.25;16.12;;;;;;;15.29;100.00;98151.47;1748339;80;21095;-70
2022/09/28 07:39:17;;;;;;;18.62;15.90;;;;;;;15.29;100.00;98150.09;1782949;79;21030;-71
2022/09/28 07:41:44;;;;;;;;;;;;;;;15.23;100.00;98148.70;1790652;79;21578;-69
2022/09/28 07:44:10;;;;;;;23.20;15.60;;;;;;;15.19;100.00;98153.84;1778880;79;20302;-67
2022/09/28 07:46:39;;;;;;;18.05;14.83;;;;;;;15.12;100.00;98153.05;1773835;79;21104;-69
2022/09/28 07:49:10;;;;;;;16.52;14.00;;;;;;;15.09;100.00;98158.41;1787732;79;21052;-70
2022/09/28 07:51:56;;;;;;;16.97;14.23;;;;;;;15.03;100.00;98150.95;1786707;80;21083;-70
2022/09/28 07:54:30;;;;;;;19.82;16.20;;;;;;;14.89;100.00;98158.11;1787225;79;21039;-70
2022/09/28 07:57:15;;;;;;;17.23;13.65;;;;;;;14.81;100.00;98156.24;1720359;83;21554;-70
2022/09/28 07:59:44;;;;;;;19.75;15.03;;;;;;;14.82;100.00;98163.90;1781515;79;21049;-68
2022/09/28 08:02:24;;;;;;;22.32;16.60;;;;;;;14.87;100.00;98160.39;1761893;80;21482;-70
2022/09/28 08:04:51;;;;;;;16.95;14.40;;;;;;;14.91;100.00;98161.89;1788785;79;20948;-70
2022/09/28 08:07:17;;;;;;;19.30;14.65;;;;;;;14.90;100.00;98158.91;1790124;79;21568;-70
2022/09/28 08:09:46;;;;;;;21.33;16.17;;;;;;;14.93;100.00;98160.97;1786955;80;21874;-69
2022/09/28 08:12:21;;;;;;;21.17;15.68;;;;;;;15.01;100.00;98155.98;1783576;79;21063;-69
2022/09/28 08:15:00;;;;;;;22.00;17.05;;;;;;;15.05;100.00;98154.17;1788940;79;21080;-69
2022/09/28 08:17:28;;;;;;;22.27;16.42;;;;;;;15.04;100.00;98157.23;1765119;79;21106;-68
2022/09/28 08:22:42;;;;;;;21.35;17.55;;;;;;;15.11;100.00;98161.02;1771890;79;21076;-71
2022/09/28 08:25:08;;;;;;;;;;;;;;;15.20;100.00;98156.80;1770015;79;21086;-69
2022/09/28 08:27:34;;;;;;;19.67;16.17;;;;;;;15.23;100.00;98154.18;1778826;79;20143;-68
2022/09/28 08:30:01;;;;;;;22.95;16.62;;;;;;;15.16;100.00;98158.05;1774048;79;21677;-69
2022/09/28 08:32:48;;;;;;;21.10;15.45;;;;;;;15.18;100.00;98154.42;1754228;79;21073;-69
2022/09/28 08:35:33;;;;;;;19.80;15.90;;;;;;;15.21;100.00;98157.04;1699491;83;21083;-69
2022/09/28 08:38:18;;;;;;;18.35;15.72;;;;;;;15.22;100.00;98164.13;1785672;79;21039;-69
2022/09/28 08:40:58;;;;;;;18.95;15.90;;;;;;;15.23;100.00;98164.37;1716453;80;21153;-69
2022/09/28 08:43:53;;;;;;;21.70;17.48;;;;;;;15.21;100.00;98166.06;1771593;79;21083;-69
2022/09/28 08:46:25;;;;;;;20.60;15.85;;;;;;;15.29;100.00;98154.78;1778151;79;21143;-67
2022/09/28 08:49:02;;;;;;;19.45;17.10;;;;;;;15.44;100.00;98150.78;1697460;80;21560;-70
2022/09/28 08:52:00;;;;;;;23.47;17.52;;;;;;;15.63;100.00;98157.68;1776385;79;21669;-69
2022/09/28 08:54:45;;;;;;;19.73;17.30;;;;;;;15.77;100.00;98155.39;1772182;79;21566;-68
2022/09/28 08:57:17;;;;;;;19.23;17.02;;;;;;;15.94;100.00;98150.46;1775806;79;20968;-67
2022/09/28 08:59:56;;;;;;;19.23;16.60;;;;;;;16.12;100.00;98142.00;1755570;79;21111;-68
2022/09/28 09:02:34;;;;;;;19.32;15.93;;;;;;;16.24;100.00;98145.50;1756084;79;21091;-70
2022/09/28 09:05:05;;;;;;;18.95;15.70;;;;;;;16.36;100.00;98141.94;1778678;79;21083;-70
2022/09/28 09:08:03;;;;;;;16.87;14.50;;;;;;;16.44;100.00;98139.03;1785111;79;21134;-69
2022/09/28 09:10:49;;;;;;;20.10;16.20;;;;;;;16.51;100.00;98141.17;1739421;81;21462;-69
2022/09/28 09:13:33;;;;;;;19.30;15.25;;;;;;;16.55;100.00;98145.40;1786221;79;21396;-69
2022/09/28 09:16:15;;;;;;;18.50;15.40;;;;;;;16.58;100.00;98146.91;1770416;79;21118;-69
2022/09/28 09:18:57;;;;;;;17.75;15.20;;;;;;;16.69;100.00;98147.20;1765632;79;21609;-69
2022/09/28 09:22:08;;;;;;;19.50;14.83;;;;;;;16.84;100.00;98162.95;1764716;79;21470;-69
2022/09/28 09:24:49;;;;;;;18.07;16.02;;;;;;;16.91;100.00;98151.58;1710578;83;21458;-69
2022/09/28 09:27:43;;;;;;;16.70;14.50;;;;;;;16.97;100.00;98152.71;1760812;79;21035;-68
2022/09/28 09:30:20;;;;;;;16.90;15.08;;;;;;;17.08;100.00;98142.77;1781997;79;21860;-69
2022/09/28 09:33:28;;;;;;;20.08;16.02;;;;;;;17.15;100.00;98145.14;1710198;83;21043;-70
2022/09/28 09:36:19;;;;;;;18.15;14.93;;;;;;;17.16;100.00;98144.00;1773742;80;21079;-70
2022/09/28 09:39:23;;;;;;;17.65;15.03;;;;;;;17.12;100.00;98143.10;1771724;79;21029;-69
2022/09/28 09:42:25;;;;;;;17.60;14.73;;;;;;;17.18;100.00;98140.91;1773762;79;21852;-68
2022/09/28 09:45:28;;;;;;;15.60;13.50;;;;;;;17.23;100.00;98135.13;1782774;79;21069;-67
2022/09/28 09:48:40;;;;;;;15.72;13.40;;;;;;;17.28;100.00;98132.13;1706077;79;21059;-67
2022/09/28 09:51:18;;;;;;;17.27;13.55;;;;;;;17.30;100.00;98136.11;1736394;79;21067;-67
2022/09/28 09:53:54;;;;;;;16.65;13.20;;;;;;;17.36;100.00;98138.02;1758150;79;21079;-67
2022/09/28 09:56:29;;;;;;;16.05;13.28;;;;;;;17.46;100.00;98132.58;1780860;79;21637;-67
2022/09/28 09:59:07;;;;;;;15.98;14.25;;;;;;;17.60;100.00;98132.95;1781407;79;21071;-69
2022/09/28 10:01:41;;;;;;;18.55;16.17;;;;;;;17.63;100.00;98126.73;1779678;79;21090;-69
2022/09/28 10:04:22;;;;;;;18.75;15.60;;;;;;;17.50;100.00;98127.97;1772829;79;21095;-68
2022/09/28 10:06:51;;;;;;;18.57;14.43;;;;;;;17.33;100.00;98121.65;1707013;83;21088;-68
2022/09/28 10:09:24;;;;;;;15.08;13.08;;;;;;;17.36;100.00;98128.39;1682574;83;21079;-68
2022/09/28 10:11:51;;;;;;;16.75;12.73;;;;;;;17.56;100.00;98134.25;1768605;79;21123;-70
2022/09/28 10:14:22;;;;;;;15.23;13.22;;;;;;;17.73;100.00;98133.06;1776874;79;21115;-71
2022/09/28 10:16:53;;;;;;;18.05;15.32;;;;;;;17.71;100.00;98126.53;1771438;79;21667;-71
2022/09/28 10:19:35;;;;;;;16.52;14.73;;;;;;;17.65;100.00;98125.22;1789960;79;21970;-68
2022/09/28 10:22:23;;;;;;;14.95;11.97;;;;;;;17.64;100.00;98127.73;1768715;80;21559;-70
2022/09/28 10:24:54;;;;;;;16.37;11.48;;;;;;;17.63;100.00;98134.99;1787689;79;20996;-71
2022/09/28 10:27:30;;;;;;;13.45;11.97;;;;;;;17.62;100.00;98130.63;1796747;79;20996;-69
2022/09/28 10:30:04;;;;;;;20.30;12.40;;;;;;;17.55;100.00;98130.43;1766646;80;21186;-70
2022/09/28 10:32:45;;;;;;;14.50;12.20;;;;;;;17.48;100.00;98132.44;1787106;80;21570;-68
2022/09/28 10:35:24;;;;;;;16.80;11.97;;;;;;;17.39;100.00;98137.33;1795282;79;21503;-69
2022/09/28 10:38:04;;;;;;;12.85;10.58;;;;;;;17.46;100.00;98135.33;1781230;79;21003;-69
2022/09/28 10:40:46;;;;;;;11.68;10.43;;;;;;;17.58;100.00;98129.74;1715808;83;21132;-69
2022/09/28 10:43:28;;;;;;;12.40;11.10;;;;;;;17.55;100.00;98135.94;1777169;80;21052;-69
2022/09/28 10:46:10;;;;;;;13.40;10.93;;;;;;;17.48;100.00;98130.25;1787979;79;21150;-69
2022/09/28 10:48:53;;;;;;;11.75;10.50;;;;;;;17.43;100.00;98133.49;1716856;83;21564;-69
2022/09/28 10:51:50;;;;;;;11.55;10.08;;;;;;;17.49;100.00;98124.41;1691665;83;21083;-67
2022/09/28 10:54:29;;;;;;;11.85;10.10;;;;;;;17.57;100.00;98121.30;1784798;79;21107;-68
2022/09/28 10:56:58;;;;;;;12.43;10.55;;;;;;;17.62;100.00;98127.31;1782299;79;21072;-68
2022/09/28 10:59:41;;;;;;;12.10;10.78;;;;;;;17.71;100.00;98125.77;1736445;80;21099;-69
2022/09/28 11:02:33;;;;;;;13.72;11.05;;;;;;;17.77;100.00;98121.00;1749357;79;21048;-70
2022/09/28 11:05:04;;;;;;;11.28;9.88;;;;;;;17.85;100.00;98120.59;1788010;79;21067;-68
2022/09/28 11:07:35;;;;;;;12.10;10.80;;;;;;;17.88;100.00;98126.75;1750376;80;21024;-69
2022/09/28 11:10:04;;;;;;;12.85;10.58;;;;;;;17.85;100.00;98126.86;1738192;79;21151;-70
2022/09/28 11:12:41;;;;;;;12.70;11.40;;;;;;;17.76;100.00;98126.27;1748252;80;21111;-70
2022/09/28 11:15:16;;;;;;;12.97;11.67;;;;;;;17.69;100.00;98132.18;1763051;79;21059;-70
2022/09/28 11:17:44;;;;;;;13.88;10.85;;;;;;;17.63;100.00;98133.05;1718498;81;21012;-70
2022/09/28 11:20:25;;;;;;;13.78;12.03;;;;;;;17.66;100.00;98141.16;1772675;79;21032;-70
2022/09/28 11:22:59;;;;;;;13.50;11.18;;;;;;;17.68;100.00;98129.20;1745340;79;20972;-70
2022/09/28 11:25:29;;;;;;;13.20;11.80;;;;;;;17.70;100.00;98140.66;1778972;79;21037;-70
2022/09/28 11:27:58;;;;;;;14.70;12.68;;;;;;;17.67;100.00;98139.44;1774598;79;21010;-70
2022/09/28 11:30:47;;;;;;;16.05;12.98;;;;;;;17.67;100.00;98128.42;1765696;79;21060;-70
2022/09/28 11:33:34;;;;;;;14.65;12.78;;;;;;;17.77;100.00;98126.50;1769858;80;21539;-70
2022/09/28 11:36:52;;;;;;;15.58;13.10;;;;;;;17.88;100.00;98130.88;1754655;80;21649;-68
2022/09/28 11:39:42;;;;;;;14.23;12.73;;;;;;;17.90;100.00;98126.60;1765267;79;21077;-68
2022/09/28 11:42:23;;;;;;;16.02;12.80;;;;;;;17.94;100.00;98127.26;1724285;80;21021;-70
2022/09/28 11:44:49;;;;;;;13.72;11.88;;;;;;;17.94;100.00;98129.44;1754329;79;21095;-70
2022/09/28 11:47:43;;;;;;;13.75;11.55;;;;;;;17.94;100.00;98128.06;1764486;79;21056;-70
2022/09/28 11:50:34;;;;;;;14.05;11.43;;;;;;;17.87;100.00;98131.45;1776380;79;21151;-70
2022/09/28 11:53:19;;;;;;;13.38;11.53;;;;;;;17.71;100.00;98130.66;1771588;79;21052;-70
2022/09/28 11:55:57;;;;;;;14.68;11.22;;;;;;;17.61;100.00;98132.58;1779002;79;21673;-69
2022/09/28 11:58:43;;;;;;;13.53;10.85;;;;;;;17.46;100.00;98131.20;1709042;83;21108;-69